Sylvan Lake, Canada
Current Conditions -  °F | °C
As of 5:00 PM on Friday 24 Oct 2014 (Local Time) from CYQF Reporting Station
Rain Showers Rain Showers  
Wind Chill: 52°   Ceiling: 21000
Heat Index: 52°   Visibility: 15mi
Dew Point: 25°   Wind: 6mph
Humidity: 35%   Direction: NA
Pressure: 29.92"   Gusts: NA
Location:  52.31°N, 114.09°W
Report Text: CYQF 242300Z VRB05KT 15SM VCSH SCT060CB BKN210 11/M04 A2992 RMK CB4CI2 SLP156 DENSITY ALT 3200FT
Loading
Personal Weather Stations






























Interactive Weather Map New forecast layout! Learn more

10-Day Weather Forecast

Advertisements
Track Severe Weather on mobile